sensor_id;sensor_type;location;lat;lon;timestamp;pressure;altitude;pressure_sealevel;temperature;humidity
63903;BME280;50072;50.678;13.938;2022-10-16T00:02:25;99421.41;;;12.35;100.00
63903;BME280;50072;50.678;13.938;2022-10-16T00:04:56;99441.75;;;12.42;100.00
63903;BME280;50072;50.678;13.938;2022-10-16T00:07:25;99434.66;;;12.39;100.00
63903;BME280;50072;50.678;13.938;2022-10-16T00:09:56;99446.19;;;12.43;100.00
63903;BME280;50072;50.678;13.938;2022-10-16T00:12:25;99439.06;;;12.42;100.00
63903;BME280;50072;50.678;13.938;2022-10-16T00:14:56;99434.50;;;12.44;100.00
63903;BME280;50072;50.678;13.938;2022-10-16T00:17:25;99429.31;;;12.39;100.00
63903;BME280;50072;50.678;13.938;2022-10-16T00:19:55;99422.94;;;12.42;100.00
63903;BME280;50072;50.678;13.938;2022-10-16T00:22:25;99430.19;;;12.40;100.00
63903;BME280;50072;50.678;13.938;2022-10-16T00:24:55;99448.97;;;12.40;100.00
63903;BME280;50072;50.678;13.938;2022-10-16T00:29:56;99440.09;;;12.38;100.00
63903;BME280;50072;50.678;13.938;2022-10-16T00:32:28;99430.41;;;12.34;100.00
63903;BME280;50072;50.678;13.938;2022-10-16T00:34:55;99436.00;;;12.28;100.00
63903;BME280;50072;50.678;13.938;2022-10-16T00:37:27;99445.88;;;12.27;100.00
63903;BME280;50072;50.678;13.938;2022-10-16T00:39:55;99456.47;;;12.30;100.00
63903;BME280;50072;50.678;13.938;2022-10-16T00:42:25;99459.97;;;12.32;100.00
63903;BME280;50072;50.678;13.938;2022-10-16T00:44:57;99459.84;;;12.35;100.00
63903;BME280;50072;50.678;13.938;2022-10-16T00:47:55;99459.75;;;12.38;100.00
63903;BME280;50072;50.678;13.938;2022-10-16T00:50:34;99451.66;;;12.40;100.00
63903;BME280;50072;50.678;13.938;2022-10-16T00:55:55;99456.03;;;12.42;100.00
63903;BME280;50072;50.678;13.938;2022-10-16T00:58:27;99459.44;;;12.48;100.00
63903;BME280;50072;50.678;13.938;2022-10-16T01:00:55;99463.94;;;12.47;100.00
63903;BME280;50072;50.678;13.938;2022-10-16T01:03:28;99475.53;;;12.48;100.00
63903;BME280;50072;50.678;13.938;2022-10-16T01:12:01;99471.75;;;12.53;100.00
63903;BME280;50072;50.678;13.938;2022-10-16T01:20:29;99461.81;;;12.55;100.00
63903;BME280;50072;50.678;13.938;2022-10-16T01:29:08;99467.19;;;12.55;100.00
63903;BME280;50072;50.678;13.938;2022-10-16T01:35:26;99463.53;;;12.58;100.00
63903;BME280;50072;50.678;13.938;2022-10-16T01:38:26;99469.72;;;12.60;100.00
63903;BME280;50072;50.678;13.938;2022-10-16T01:41:04;99468.88;;;12.58;100.00
63903;BME280;50072;50.678;13.938;2022-10-16T01:44:05;99482.19;;;12.61;100.00
63903;BME280;50072;50.678;13.938;2022-10-16T01:46:36;99472.34;;;12.62;100.00
63903;BME280;50072;50.678;13.938;2022-10-16T01:49:25;99473.22;;;12.62;100.00
63903;BME280;50072;50.678;13.938;2022-10-16T01:51:59;99468.72;;;12.63;100.00
63903;BME280;50072;50.678;13.938;2022-10-16T01:57:25;99459.84;;;12.60;100.00
63903;BME280;50072;50.678;13.938;2022-10-16T02:00:01;99458.81;;;12.65;100.00
63903;BME280;50072;50.678;13.938;2022-10-16T02:02:33;99451.69;;;12.64;100.00
63903;BME280;50072;50.678;13.938;2022-10-16T02:05:29;99458.69;;;12.68;100.00
63903;BME280;50072;50.678;13.938;2022-10-16T02:08:00;99445.38;;;12.65;100.00
63903;BME280;50072;50.678;13.938;2022-10-16T02:10:32;99456.88;;;12.68;100.00
63903;BME280;50072;50.678;13.938;2022-10-16T02:13:04;99457.72;;;12.70;100.00
63903;BME280;50072;50.678;13.938;2022-10-16T02:15:34;99455.03;;;12.70;100.00
63903;BME280;50072;50.678;13.938;2022-10-16T02:18:04;99452.41;;;12.69;100.00
63903;BME280;50072;50.678;13.938;2022-10-16T02:29:39;99478.25;;;12.71;100.00
63903;BME280;50072;50.678;13.938;2022-10-16T02:32:30;99480.78;;;12.76;100.00
63903;BME280;50072;50.678;13.938;2022-10-16T02:35:25;99476.22;;;12.78;100.00
63903;BME280;50072;50.678;13.938;2022-10-16T02:37:55;99475.28;;;12.79;100.00
63903;BME280;50072;50.678;13.938;2022-10-16T02:40:28;99474.34;;;12.80;100.00
63903;BME280;50072;50.678;13.938;2022-10-16T02:42:55;99471.78;;;12.77;100.00
63903;BME280;50072;50.678;13.938;2022-10-16T02:45:25;99476.09;;;12.81;100.00
63903;BME280;50072;50.678;13.938;2022-10-16T02:47:55;99461.97;;;12.76;100.00
63903;BME280;50072;50.678;13.938;2022-10-16T02:50:25;99472.41;;;12.84;100.00
63903;BME280;50072;50.678;13.938;2022-10-16T02:52:56;99472.41;;;12.84;100.00
63903;BME280;50072;50.678;13.938;2022-10-16T02:55:25;99466.91;;;12.87;100.00
63903;BME280;50072;50.678;13.938;2022-10-16T02:57:55;99472.28;;;12.87;100.00
63903;BME280;50072;50.678;13.938;2022-10-16T03:00:27;99474.97;;;12.87;100.00
63903;BME280;50072;50.678;13.938;2022-10-16T03:02:55;99483.94;;;12.87;100.00
63903;BME280;50072;50.678;13.938;2022-10-16T03:05:20;99476.09;;;12.81;100.00
63903;BME280;50072;50.678;13.938;2022-10-16T03:07:55;99481.31;;;12.86;100.00
63903;BME280;50072;50.678;13.938;2022-10-16T03:10:27;99480.34;;;12.87;100.00
63903;BME280;50072;50.678;13.938;2022-10-16T03:12:55;99482.28;;;12.83;100.00
63903;BME280;50072;50.678;13.938;2022-10-16T03:15:26;99492.91;;;12.86;100.00
63903;BME280;50072;50.678;13.938;2022-10-16T03:17:57;99492.13;;;12.84;100.00
63903;BME280;50072;50.678;13.938;2022-10-16T03:20:26;99485.78;;;12.85;100.00
63903;BME280;50072;50.678;13.938;2022-10-16T03:22:55;99481.38;;;12.84;100.00
63903;BME280;50072;50.678;13.938;2022-10-16T03:25:25;99484.13;;;12.83;100.00
63903;BME280;50072;50.678;13.938;2022-10-16T03:27:56;99493.78;;;12.87;100.00
63903;BME280;50072;50.678;13.938;2022-10-16T03:30:27;99482.16;;;12.86;100.00
63903;BME280;50072;50.678;13.938;2022-10-16T03:32:55;99482.16;;;12.86;100.00
63903;BME280;50072;50.678;13.938;2022-10-16T03:35:27;99485.69;;;12.88;100.00
63903;BME280;50072;50.678;13.938;2022-10-16T03:37:55;99495.47;;;12.89;100.00
63903;BME280;50072;50.678;13.938;2022-10-16T03:40:25;99505.41;;;12.87;100.00
63903;BME280;50072;50.678;13.938;2022-10-16T03:42:55;99508.84;;;12.91;100.00
63903;BME280;50072;50.678;13.938;2022-10-16T03:45:25;99513.31;;;12.92;100.00
63903;BME280;50072;50.678;13.938;2022-10-16T03:47:55;99512.44;;;12.91;100.00
63903;BME280;50072;50.678;13.938;2022-10-16T03:50:27;99502.56;;;12.92;100.00
63903;BME280;50072;50.678;13.938;2022-10-16T03:52:55;99511.53;;;12.91;100.00
63903;BME280;50072;50.678;13.938;2022-10-16T03:55:25;99519.53;;;12.92;100.00
63903;BME280;50072;50.678;13.938;2022-10-16T03:57:55;99524.03;;;12.92;100.00
63903;BME280;50072;50.678;13.938;2022-10-16T04:00:27;99524.91;;;12.92;100.00
63903;BME280;50072;50.678;13.938;2022-10-16T04:02:55;99523.25;;;12.90;100.00
63903;BME280;50072;50.678;13.938;2022-10-16T04:05:25;99532.16;;;12.90;100.00
63903;BME280;50072;50.678;13.938;2022-10-16T04:07:55;99524.97;;;12.91;100.00
63903;BME280;50072;50.678;13.938;2022-10-16T04:10:25;99528.63;;;12.90;100.00
63903;BME280;50072;50.678;13.938;2022-10-16T04:12:56;99532.16;;;12.90;100.00
63903;BME280;50072;50.678;13.938;2022-10-16T04:15:27;99525.03;;;12.89;100.00
63903;BME280;50072;50.678;13.938;2022-10-16T04:17:55;99530.34;;;12.91;100.00
63903;BME280;50072;50.678;13.938;2022-10-16T04:20:25;99523.19;;;12.91;100.00
63903;BME280;50072;50.678;13.938;2022-10-16T04:22:56;99526.72;;;12.92;100.00
63903;BME280;50072;50.678;13.938;2022-10-16T04:25:25;99525.03;;;12.89;100.00
63903;BME280;50072;50.678;13.938;2022-10-16T04:27:55;99526.91;;;12.87;100.00
63903;BME280;50072;50.678;13.938;2022-10-16T04:30:25;99534.00;;;12.90;100.00
63903;BME280;50072;50.678;13.938;2022-10-16T04:32:55;99526.72;;;12.92;100.00
63903;BME280;50072;50.678;13.938;2022-10-16T04:35:27;99522.19;;;12.94;100.00
63903;BME280;50072;50.678;13.938;2022-10-16T04:37:57;99531.81;;;13.00;100.00
63903;BME280;50072;50.678;13.938;2022-10-16T04:40:25;99528.31;;;12.98;100.00
63903;BME280;50072;50.678;13.938;2022-10-16T04:42:55;99528.44;;;12.94;100.00
63903;BME280;50072;50.678;13.938;2022-10-16T04:45:26;99542.66;;;12.97;100.00
63903;BME280;50072;50.678;13.938;2022-10-16T04:48:00;99526.69;;;12.93;100.00
63903;BME280;50072;50.678;13.938;2022-10-16T04:50:26;99519.50;;;12.94;100.00
63903;BME280;50072;50.678;13.938;2022-10-16T04:52:58;99523.06;;;12.94;100.00
63903;BME280;50072;50.678;13.938;2022-10-16T04:55:25;99535.66;;;12.92;100.00
63903;BME280;50072;50.678;13.938;2022-10-16T04:57:54;99533.81;;;12.94;100.00
63903;BME280;50072;50.678;13.938;2022-10-16T05:00:25;99543.63;;;12.95;100.00
63903;BME280;50072;50.678;13.938;2022-10-16T05:02:55;99546.31;;;12.95;100.00
63903;BME280;50072;50.678;13.938;2022-10-16T05:05:27;99542.91;;;12.90;100.00
63903;BME280;50072;50.678;13.938;2022-10-16T05:07:55;99535.66;;;12.92;100.00
63903;BME280;50072;50.678;13.938;2022-10-16T05:10:25;99538.41;;;12.91;100.00
63903;BME280;50072;50.678;13.938;2022-10-16T05:12:53;99541.25;;;12.86;100.00
63903;BME280;50072;50.678;13.938;2022-10-16T05:15:25;99541.50;;;12.80;100.00
63903;BME280;50072;50.678;13.938;2022-10-16T05:17:55;99550.47;;;12.79;100.00
63903;BME280;50072;50.678;13.938;2022-10-16T05:20:27;99553.09;;;12.81;100.00
63903;BME280;50072;50.678;13.938;2022-10-16T05:22:55;99544.19;;;12.80;100.00
63903;BME280;50072;50.678;13.938;2022-10-16T05:25:27;99537.06;;;12.79;100.00
63903;BME280;50072;50.678;13.938;2022-10-16T05:27:55;99533.38;;;12.82;100.00
63903;BME280;50072;50.678;13.938;2022-10-16T05:30:25;99534.25;;;12.82;100.00
63903;BME280;50072;50.678;13.938;2022-10-16T05:35:26;99548.59;;;12.81;100.00
63903;BME280;50072;50.678;13.938;2022-10-16T05:37:55;99555.91;;;12.77;100.00
63903;BME280;50072;50.678;13.938;2022-10-16T05:40:26;99562.09;;;12.80;100.00
63903;BME280;50072;50.678;13.938;2022-10-16T05:42:55;99561.09;;;12.82;100.00
63903;BME280;50072;50.678;13.938;2022-10-16T05:45:25;99565.59;;;12.82;100.00
63903;BME280;50072;50.678;13.938;2022-10-16T05:47:53;99561.09;;;12.82;100.00
63903;BME280;50072;50.678;13.938;2022-10-16T05:50:25;99570.81;;;12.86;100.00
63903;BME280;50072;50.678;13.938;2022-10-16T05:52:55;99575.13;;;12.90;100.00
63903;BME280;50072;50.678;13.938;2022-10-16T05:55:27;99582.28;;;12.91;100.00
63903;BME280;50072;50.678;13.938;2022-10-16T05:58:03;99589.44;;;12.91;100.00
63903;BME280;50072;50.678;13.938;2022-10-16T06:00:57;99589.19;;;12.99;100.00
63903;BME280;50072;50.678;13.938;2022-10-16T06:03:24;99596.28;;;13.00;100.00
63903;BME280;50072;50.678;13.938;2022-10-16T06:05:50;99598.03;;;13.01;100.00
63903;BME280;50072;50.678;13.938;2022-10-16T06:08:22;99595.31;;;13.02;100.00
63903;BME280;50072;50.678;13.938;2022-10-16T06:10:59;99600.41;;;13.10;100.00
63903;BME280;50072;50.678;13.938;2022-10-16T06:13:26;99608.34;;;13.13;100.00
63903;BME280;50072;50.678;13.938;2022-10-16T06:15:51;99622.59;;;13.15;100.00
63903;BME280;50072;50.678;13.938;2022-10-16T06:18:17;99628.63;;;13.22;100.00
63903;BME280;50072;50.678;13.938;2022-10-16T06:20:43;99638.34;;;13.26;100.00
63903;BME280;50072;50.678;13.938;2022-10-16T06:23:09;99632.78;;;13.30;100.00
63903;BME280;50072;50.678;13.938;2022-10-16T06:25:35;99633.63;;;13.33;100.00
63903;BME280;50072;50.678;13.938;2022-10-16T06:28:01;99635.13;;;13.41;100.00
63903;BME280;50072;50.678;13.938;2022-10-16T06:30:28;99634.03;;;13.47;100.00
63903;BME280;50072;50.678;13.938;2022-10-16T06:32:54;99634.56;;;13.57;100.00
63903;BME280;50072;50.678;13.938;2022-10-16T06:35:20;99641.34;;;13.67;100.00
63903;BME280;50072;50.678;13.938;2022-10-16T06:37:46;99637.41;;;13.76;100.00
63903;BME280;50072;50.678;13.938;2022-10-16T06:40:12;99650.38;;;13.88;100.00
63903;BME280;50072;50.678;13.938;2022-10-16T06:42:40;99648.84;;;14.05;100.00
63903;BME280;50072;50.678;13.938;2022-10-16T06:45:06;99648.41;;;14.15;100.00
63903;BME280;50072;50.678;13.938;2022-10-16T06:47:33;99655.09;;;14.27;100.00
63903;BME280;50072;50.678;13.938;2022-10-16T06:49:58;99655.69;;;14.36;100.00
63903;BME280;50072;50.678;13.938;2022-10-16T06:52:24;99664.19;;;14.47;100.00
63903;BME280;50072;50.678;13.938;2022-10-16T06:54:50;99669.09;;;14.59;100.00
63903;BME280;50072;50.678;13.938;2022-10-16T06:57:15;99668.84;;;14.65;100.00
63903;BME280;50072;50.678;13.938;2022-10-16T06:59:41;99670.97;;;14.79;100.00
63903;BME280;50072;50.678;13.938;2022-10-16T07:02:08;99667.28;;;15.02;100.00
63903;BME280;50072;50.678;13.938;2022-10-16T07:04:35;99674.41;;;15.24;100.00
63903;BME280;50072;50.678;13.938;2022-10-16T07:07:01;99675.59;;;15.38;100.00
63903;BME280;50072;50.678;13.938;2022-10-16T07:09:27;99681.94;;;15.57;100.00
63903;BME280;50072;50.678;13.938;2022-10-16T07:11:53;99679.16;;;15.59;100.00
63903;BME280;50072;50.678;13.938;2022-10-16T07:14:20;99683.56;;;15.61;100.00
63903;BME280;50072;50.678;13.938;2022-10-16T07:16:47;99700.50;;;15.65;100.00
63903;BME280;50072;50.678;13.938;2022-10-16T07:19:13;99695.03;;;15.66;100.00
63903;BME280;50072;50.678;13.938;2022-10-16T07:21:40;99700.28;;;15.69;100.00
63903;BME280;50072;50.678;13.938;2022-10-16T07:24:11;99706.47;;;15.71;100.00
63903;BME280;50072;50.678;13.938;2022-10-16T07:26:38;99714.56;;;15.71;100.00
63903;BME280;50072;50.678;13.938;2022-10-16T07:29:23;99722.72;;;15.70;100.00
63903;BME280;50072;50.678;13.938;2022-10-16T07:31:49;99720.97;;;15.69;100.00
63903;BME280;50072;50.678;13.938;2022-10-16T07:34:17;99721.03;;;15.67;100.00
63903;BME280;50072;50.678;13.938;2022-10-16T07:37:01;99723.72;;;15.67;100.00
63903;BME280;50072;50.678;13.938;2022-10-16T07:39:27;99732.72;;;15.68;100.00
63903;BME280;50072;50.678;13.938;2022-10-16T07:41:53;99729.28;;;15.64;100.00
63903;BME280;50072;50.678;13.938;2022-10-16T07:44:18;99727.41;;;15.66;100.00
63903;BME280;50072;50.678;13.938;2022-10-16T07:46:44;99729.13;;;15.67;100.00
63903;BME280;50072;50.678;13.938;2022-10-16T07:49:09;99719.75;;;15.76;100.00
63903;BME280;50072;50.678;13.938;2022-10-16T07:51:35;99715.34;;;15.94;100.00
63903;BME280;50072;50.678;13.938;2022-10-16T07:54:01;99717.47;;;16.26;100.00
63903;BME280;50072;50.678;13.938;2022-10-16T07:56:30;99712.59;;;17.07;100.00
63903;BME280;50072;50.678;13.938;2022-10-16T07:58:56;99706.56;;;17.19;100.00
63903;BME280;50072;50.678;13.938;2022-10-16T08:01:23;99721.19;;;18.01;99.98
63903;BME280;50072;50.678;13.938;2022-10-16T08:03:51;99726.09;;;19.06;94.46
63903;BME280;50072;50.678;13.938;2022-10-16T08:06:18;99727.69;;;19.86;87.59
63903;BME280;50072;50.678;13.938;2022-10-16T08:08:43;99723.50;;;20.65;86.75
63903;BME280;50072;50.678;13.938;2022-10-16T08:11:25;99744.25;;;21.35;77.77
63903;BME280;50072;50.678;13.938;2022-10-16T08:13:55;99743.25;;;20.68;81.08
63903;BME280;50072;50.678;13.938;2022-10-16T08:16:25;99754.25;;;20.09;83.35
63903;BME280;50072;50.678;13.938;2022-10-16T08:18:55;99740.59;;;19.66;81.59
63903;BME280;50072;50.678;13.938;2022-10-16T08:21:26;99747.75;;;19.38;82.73
63903;BME280;50072;50.678;13.938;2022-10-16T08:23:58;99754.94;;;19.23;82.45
63903;BME280;50072;50.678;13.938;2022-10-16T08:26:26;99756.56;;;19.11;83.13
63903;BME280;50072;50.678;13.938;2022-10-16T08:28:55;99742.56;;;19.03;84.44
63903;BME280;50072;50.678;13.938;2022-10-16T08:31:22;99732.38;;;19.23;84.88
63903;BME280;50072;50.678;13.938;2022-10-16T08:33:55;99743.03;;;19.26;83.22
63903;BME280;50072;50.678;13.938;2022-10-16T08:36:27;99749.66;;;19.06;83.36
63903;BME280;50072;50.678;13.938;2022-10-16T08:38:55;99744.16;;;18.91;84.21
63903;BME280;50072;50.678;13.938;2022-10-16T08:49:25;99750.28;;;18.63;84.78
63903;BME280;50072;50.678;13.938;2022-10-16T08:51:55;99744.16;;;18.91;84.32
63903;BME280;50072;50.678;13.938;2022-10-16T08:54:32;99752.06;;;19.71;82.91
63903;BME280;50072;50.678;13.938;2022-10-16T08:57:22;99753.47;;;21.19;77.67
63903;BME280;50072;50.678;13.938;2022-10-16T09:00:00;99756.03;;;21.48;74.57
63903;BME280;50072;50.678;13.938;2022-10-16T09:02:39;99764.72;;;21.28;74.84
63903;BME280;50072;50.678;13.938;2022-10-16T09:05:45;99761.13;;;21.00;75.45
63903;BME280;50072;50.678;13.938;2022-10-16T09:10:58;99759.31;;;20.86;75.95
63903;BME280;50072;50.678;13.938;2022-10-16T09:13:52;99762.81;;;20.88;73.50
63903;BME280;50072;50.678;13.938;2022-10-16T09:16:30;99757.75;;;20.82;75.61
63903;BME280;50072;50.678;13.938;2022-10-16T09:19:30;99769.56;;;20.68;74.07
63903;BME280;50072;50.678;13.938;2022-10-16T09:22:12;99760.94;;;20.32;76.18
63903;BME280;50072;50.678;13.938;2022-10-16T09:24:40;99767.44;;;20.30;77.16
63903;BME280;50072;50.678;13.938;2022-10-16T09:27:10;99773.09;;;20.27;76.34
63903;BME280;50072;50.678;13.938;2022-10-16T09:29:37;99774.66;;;20.31;76.48
63903;BME280;50072;50.678;13.938;2022-10-16T09:32:22;99770.16;;;20.44;75.43
63903;BME280;50072;50.678;13.938;2022-10-16T09:34:53;99775.56;;;20.59;76.05
63903;BME280;50072;50.678;13.938;2022-10-16T09:37:24;99761.47;;;20.81;75.79
63903;BME280;50072;50.678;13.938;2022-10-16T09:39:53;99765.63;;;20.86;75.25
63903;BME280;50072;50.678;13.938;2022-10-16T09:42:34;99773.84;;;22.18;70.95
63903;BME280;50072;50.678;13.938;2022-10-16T09:45:03;99772.06;;;22.93;69.02
63903;BME280;50072;50.678;13.938;2022-10-16T09:47:30;99769.84;;;22.74;67.57
63903;BME280;50072;50.678;13.938;2022-10-16T09:50:23;99771.44;;;22.89;66.49
63903;BME280;50072;50.678;13.938;2022-10-16T09:52:49;99764.84;;;24.11;64.09
63903;BME280;50072;50.678;13.938;2022-10-16T09:55:17;99758.22;;;25.37;63.83
63903;BME280;50072;50.678;13.938;2022-10-16T09:57:53;99757.59;;;26.08;54.91
63903;BME280;50072;50.678;13.938;2022-10-16T10:00:21;99765.31;;;25.28;59.38
63903;BME280;50072;50.678;13.938;2022-10-16T10:02:47;99766.72;;;24.68;62.11
63903;BME280;50072;50.678;13.938;2022-10-16T10:05:25;99763.72;;;24.37;60.45
63903;BME280;50072;50.678;13.938;2022-10-16T10:08:14;99773.19;;;23.63;61.41
63903;BME280;50072;50.678;13.938;2022-10-16T10:10:47;99771.75;;;22.98;64.67
63903;BME280;50072;50.678;13.938;2022-10-16T10:13:19;99770.63;;;22.39;65.33
63903;BME280;50072;50.678;13.938;2022-10-16T10:15:46;99775.97;;;22.02;67.08
63903;BME280;50072;50.678;13.938;2022-10-16T10:18:17;99775.59;;;21.68;68.74
63903;BME280;50072;50.678;13.938;2022-10-16T10:21:03;99779.22;;;21.41;69.75
63903;BME280;50072;50.678;13.938;2022-10-16T10:23:31;99781.22;;;21.25;70.64
63903;BME280;50072;50.678;13.938;2022-10-16T10:26:20;99777.69;;;21.10;71.38
63903;BME280;50072;50.678;13.938;2022-10-16T10:36:35;99789.91;;;20.90;73.67
63903;BME280;50072;50.678;13.938;2022-10-16T10:39:22;99785.28;;;20.77;73.17
63903;BME280;50072;50.678;13.938;2022-10-16T10:42:08;99792.94;;;20.71;72.99
63903;BME280;50072;50.678;13.938;2022-10-16T10:52:41;99802.09;;;20.69;74.91
63903;BME280;50072;50.678;13.938;2022-10-16T11:06:10;99804.38;;;21.17;72.89
63903;BME280;50072;50.678;13.938;2022-10-16T11:08:42;99806.63;;;20.98;73.25
63903;BME280;50072;50.678;13.938;2022-10-16T11:11:11;99807.03;;;20.77;73.77
63903;BME280;50072;50.678;13.938;2022-10-16T11:16:36;99809.16;;;20.58;74.07
63903;BME280;50072;50.678;13.938;2022-10-16T11:19:22;99811.88;;;20.72;74.39
63903;BME280;50072;50.678;13.938;2022-10-16T11:22:04;99812.47;;;20.63;74.53
63903;BME280;50072;50.678;13.938;2022-10-16T11:24:41;99813.25;;;20.79;74.57
63903;BME280;50072;50.678;13.938;2022-10-16T11:27:13;99804.13;;;21.08;73.68
63903;BME280;50072;50.678;13.938;2022-10-16T11:29:49;99802.06;;;21.66;71.71
63903;BME280;50072;50.678;13.938;2022-10-16T11:32:49;99799.38;;;22.93;70.31
63903;BME280;50072;50.678;13.938;2022-10-16T11:35:21;99792.06;;;24.58;66.69
63903;BME280;50072;50.678;13.938;2022-10-16T11:37:50;99782.63;;;24.74;64.87
63903;BME280;50072;50.678;13.938;2022-10-16T11:40:52;99783.84;;;24.58;64.74
63903;BME280;50072;50.678;13.938;2022-10-16T11:43:15;99785.16;;;24.66;63.24
63903;BME280;50072;50.678;13.938;2022-10-16T11:45:44;99787.88;;;24.54;64.67
63903;BME280;50072;50.678;13.938;2022-10-16T11:48:27;99792.56;;;24.41;63.88
63903;BME280;50072;50.678;13.938;2022-10-16T11:50:57;99787.22;;;24.28;62.39
63903;BME280;50072;50.678;13.938;2022-10-16T11:56:17;99783.09;;;24.11;63.85
63903;BME280;50072;50.678;13.938;2022-10-16T12:01:47;99786.00;;;23.85;63.28
63903;BME280;50072;50.678;13.938;2022-10-16T12:04:26;99779.28;;;23.78;64.13
63903;BME280;50072;50.678;13.938;2022-10-16T12:07:09;99773.22;;;23.74;64.00
63903;BME280;50072;50.678;13.938;2022-10-16T12:09:40;99774.53;;;23.93;64.78
63903;BME280;50072;50.678;13.938;2022-10-16T12:17:44;99777.88;;;24.08;64.16
63903;BME280;50072;50.678;13.938;2022-10-16T12:25:31;99780.75;;;23.71;62.86
63903;BME280;50072;50.678;13.938;2022-10-16T12:28:26;99782.31;;;23.51;63.49
63903;BME280;50072;50.678;13.938;2022-10-16T12:31:05;99787.38;;;23.20;64.39
63903;BME280;50072;50.678;13.938;2022-10-16T12:33:35;99780.69;;;23.00;65.43
63903;BME280;50072;50.678;13.938;2022-10-16T12:36:07;99790.00;;;22.84;66.04
63903;BME280;50072;50.678;13.938;2022-10-16T12:38:48;99792.75;;;22.84;66.50
63903;BME280;50072;50.678;13.938;2022-10-16T12:41:25;99795.97;;;23.02;65.90
63903;BME280;50072;50.678;13.938;2022-10-16T12:43:52;99791.00;;;23.20;65.15
63903;BME280;50072;50.678;13.938;2022-10-16T12:46:20;99798.38;;;23.31;64.70
63903;BME280;50072;50.678;13.938;2022-10-16T12:48:47;99798.72;;;23.26;62.80
63903;BME280;50072;50.678;13.938;2022-10-16T12:51:36;99787.06;;;23.24;63.48
63903;BME280;50072;50.678;13.938;2022-10-16T12:54:12;99793.63;;;23.22;63.84
63903;BME280;50072;50.678;13.938;2022-10-16T13:10:05;99799.53;;;22.79;65.88
63903;BME280;50072;50.678;13.938;2022-10-16T13:15:28;99795.38;;;23.10;67.72
63903;BME280;50072;50.678;13.938;2022-10-16T13:18:28;99800.97;;;23.33;65.64
63903;BME280;50072;50.678;13.938;2022-10-16T13:23:46;99793.13;;;25.77;62.99
63903;BME280;50072;50.678;13.938;2022-10-16T13:29:01;99791.19;;;25.89;58.09
63903;BME280;50072;50.678;13.938;2022-10-16T13:31:28;99789.56;;;25.44;58.45
63903;BME280;50072;50.678;13.938;2022-10-16T13:33:56;99799.47;;;25.78;58.42
63903;BME280;50072;50.678;13.938;2022-10-16T13:36:27;99788.69;;;25.44;59.79
63903;BME280;50072;50.678;13.938;2022-10-16T13:39:09;99795.44;;;25.61;57.78
63903;BME280;50072;50.678;13.938;2022-10-16T13:41:37;99806.22;;;27.09;55.97
63903;BME280;50072;50.678;13.938;2022-10-16T13:44:03;99798.66;;;26.29;56.72
63903;BME280;50072;50.678;13.938;2022-10-16T13:46:29;99800.34;;;25.57;57.05
63903;BME280;50072;50.678;13.938;2022-10-16T13:49:14;99810.47;;;26.20;56.07
63903;BME280;50072;50.678;13.938;2022-10-16T13:51:40;99806.97;;;26.70;55.48
63903;BME280;50072;50.678;13.938;2022-10-16T13:54:09;99804.56;;;27.47;53.41
63903;BME280;50072;50.678;13.938;2022-10-16T13:56:38;99804.25;;;28.09;51.28
63903;BME280;50072;50.678;13.938;2022-10-16T13:59:07;99814.25;;;27.41;52.09
63903;BME280;50072;50.678;13.938;2022-10-16T14:01:47;99805.91;;;26.92;52.61
63903;BME280;50072;50.678;13.938;2022-10-16T14:04:13;99810.53;;;26.30;54.34
63903;BME280;50072;50.678;13.938;2022-10-16T14:06:42;99812.72;;;25.73;54.15
63903;BME280;50072;50.678;13.938;2022-10-16T14:09:36;99814.88;;;25.25;55.72
63903;BME280;50072;50.678;13.938;2022-10-16T14:12:08;99810.50;;;24.90;56.97
63903;BME280;50072;50.678;13.938;2022-10-16T14:14:42;99811.03;;;24.61;58.18
63903;BME280;50072;50.678;13.938;2022-10-16T14:17:18;99815.59;;;24.72;59.43
63903;BME280;50072;50.678;13.938;2022-10-16T14:19:50;99801.28;;;24.35;60.00
63903;BME280;50072;50.678;13.938;2022-10-16T14:22:40;99804.53;;;24.74;60.05
63903;BME280;50072;50.678;13.938;2022-10-16T14:25:28;99803.41;;;24.76;61.15
63903;BME280;50072;50.678;13.938;2022-10-16T14:28:14;99809.13;;;24.73;59.49
63903;BME280;50072;50.678;13.938;2022-10-16T14:30:53;99798.94;;;24.41;60.20
63903;BME280;50072;50.678;13.938;2022-10-16T14:36:10;99804.97;;;24.00;61.82
63903;BME280;50072;50.678;13.938;2022-10-16T14:38:38;99800.78;;;23.83;61.79
63903;BME280;50072;50.678;13.938;2022-10-16T14:41:05;99807.06;;;23.60;62.84
63903;BME280;50072;50.678;13.938;2022-10-16T14:43:34;99798.13;;;23.34;63.58
63903;BME280;50072;50.678;13.938;2022-10-16T14:46:02;99804.00;;;23.17;63.78
63903;BME280;50072;50.678;13.938;2022-10-16T14:48:29;99807.47;;;22.95;64.48
63903;BME280;50072;50.678;13.938;2022-10-16T14:50:55;99803.56;;;22.73;64.85
63903;BME280;50072;50.678;13.938;2022-10-16T14:53:21;99795.75;;;22.55;65.24
63903;BME280;50072;50.678;13.938;2022-10-16T14:55:48;99797.66;;;22.42;66.95
63903;BME280;50072;50.678;13.938;2022-10-16T14:58:23;99801.44;;;22.27;68.21
63903;BME280;50072;50.678;13.938;2022-10-16T15:00:50;99800.78;;;22.10;67.65
63903;BME280;50072;50.678;13.938;2022-10-16T15:03:16;99821.06;;;22.06;67.79
63903;BME280;50072;50.678;13.938;2022-10-16T15:05:42;99815.19;;;21.99;68.46
63903;BME280;50072;50.678;13.938;2022-10-16T15:08:08;99821.06;;;21.93;68.67
63903;BME280;50072;50.678;13.938;2022-10-16T15:10:39;99826.31;;;21.83;69.32
63903;BME280;50072;50.678;13.938;2022-10-16T15:13:05;99826.69;;;21.64;68.95
63903;BME280;50072;50.678;13.938;2022-10-16T15:15:35;99829.72;;;21.60;69.30